Time;durP1;ratioP1;P1;durP2;ratioP2;P2;SDS_P1;SDS_P2;PMS_P1;PMS_P2;Temp;Humidity;BMP_temperature;BMP_pressure;BME280_temperature;BME280_humidity;BME280_pressure;Samples;Min_cycle;Max_cycle;Signal;HPM_P1;HPM_P2
2022/03/18 15:52:31;;;;;;;9.70;3.77;;;12.40;99.90;;;;;;5062031;28;20564;-71
2022/03/18 15:54:57;;;;;;;7.20;4.23;;;12.40;99.90;;;;;;5060369;28;20277;-69
2022/03/18 15:57:24;;;;;;;8.33;4.20;;;12.40;99.90;;;;;;5062039;28;20262;-69
2022/03/18 15:59:51;;;;;;;7.80;4.17;;;12.50;99.90;;;;;;5059175;28;20207;-70
2022/03/18 16:02:17;;;;;;;5.90;4.07;;;12.50;99.90;;;;;;5060533;28;20194;-70
2022/03/18 16:04:43;;;;;;;9.77;5.03;;;12.50;99.90;;;;;;5063192;28;20204;-70
2022/03/18 16:07:09;;;;;;;5.23;4.43;;;12.60;99.90;;;;;;5058282;28;20210;-70
2022/03/18 16:09:34;;;;;;;9.53;4.70;;;12.60;99.90;;;;;;5059428;28;20236;-71
2022/03/18 16:12:04;;;;;;;10.20;5.30;;;12.60;99.90;;;;;;5059480;28;20259;-70
2022/03/18 16:14:32;;;;;;;13.43;5.77;;;12.70;99.90;;;;;;5059964;28;20179;-71
2022/03/18 16:16:57;;;;;;;10.53;5.73;;;12.70;99.90;;;;;;5059636;28;20191;-70
2022/03/18 16:19:23;;;;;;;11.97;7.60;;;12.70;99.90;;;;;;5059983;28;20400;-72
2022/03/18 16:21:49;;;;;;;11.30;7.13;;;12.80;99.90;;;;;;5058994;28;20195;-71
2022/03/18 16:24:14;;;;;;;9.70;6.70;;;12.80;99.90;;;;;;5061104;28;20616;-71
2022/03/18 16:26:59;;;;;;;9.77;5.97;;;12.80;99.90;;;;;;5057204;28;20257;-72
2022/03/18 16:29:26;;;;;;;10.57;6.90;;;12.80;99.90;;;;;;5058722;28;20209;-71
2022/03/18 16:31:52;;;;;;;15.80;8.25;;;12.80;99.90;;;;;;5055446;28;20454;-71
2022/03/18 16:34:19;;;;;;;11.63;6.50;;;12.80;99.90;;;;;;5058809;28;20191;-71
2022/03/18 16:36:47;;;;;;;9.73;7.07;;;12.90;99.90;;;;;;5059867;28;20191;-71
2022/03/18 16:39:13;;;;;;;14.00;7.40;;;13.00;99.90;;;;;;5061191;28;20206;-70
2022/03/18 16:41:39;;;;;;;11.77;7.13;;;13.00;99.90;;;;;;5059023;28;20273;-70
2022/03/18 16:44:08;;;;;;;9.27;6.90;;;13.00;99.90;;;;;;5057678;28;20187;-70
2022/03/18 16:49:25;;;;;;;10.50;7.40;;;12.90;99.90;;;;;;5059073;28;20389;-70
2022/03/18 16:51:55;;;;;;;11.23;7.37;;;12.90;99.90;;;;;;5063050;28;20234;-71
2022/03/18 16:54:21;;;;;;;11.03;8.30;;;12.90;99.90;;;;;;5058666;28;20237;-70
2022/03/18 16:56:48;;;;;;;12.20;7.60;;;12.80;99.90;;;;;;5057654;28;20187;-71
2022/03/18 16:59:13;;;;;;;11.57;7.97;;;12.80;99.90;;;;;;5056493;28;20219;-70
2022/03/18 17:01:45;;;;;;;11.97;7.83;;;12.70;99.90;;;;;;5058962;28;20252;-70
2022/03/18 17:04:12;;;;;;;12.57;7.60;;;12.70;99.90;;;;;;5045458;28;20278;-70
2022/03/18 17:06:38;;;;;;;11.70;7.77;;;12.70;99.90;;;;;;5045553;28;20179;-70
2022/03/18 17:09:04;;;;;;;14.53;7.70;;;12.60;99.90;;;;;;5046501;28;20218;-70
2022/03/18 17:11:31;;;;;;;13.43;7.97;;;12.60;99.90;;;;;;5043243;28;20176;-70
2022/03/18 17:13:57;;;;;;;14.37;8.30;;;12.50;99.90;;;;;;5046387;28;20333;-71
2022/03/18 17:16:23;;;;;;;13.13;8.33;;;12.40;99.90;;;;;;5047662;28;20234;-70
2022/03/18 17:18:49;;;;;;;15.17;8.47;;;12.50;99.90;;;;;;5042747;28;20643;-71
2022/03/18 17:21:15;;;;;;;13.60;7.80;;;12.40;99.90;;;;;;5045422;28;20191;-71
2022/03/18 17:23:41;;;;;;;14.03;7.50;;;12.40;99.90;;;;;;5046995;28;20284;-70
2022/03/18 17:26:06;;;;;;;11.90;7.73;;;12.30;99.90;;;;;;5045482;28;20215;-70
2022/03/18 17:28:32;;;;;;;11.47;7.30;;;12.30;99.90;;;;;;5046200;28;20203;-70
2022/03/18 17:30:59;;;;;;;9.93;7.20;;;12.30;99.90;;;;;;5047925;28;20187;-71
2022/03/18 17:33:25;;;;;;;15.40;9.05;;;12.30;99.90;;;;;;5043367;28;20435;-69
2022/03/18 17:35:51;;;;;;;13.70;7.40;;;12.20;99.90;;;;;;5041168;28;20184;-71
2022/03/18 17:38:16;;;;;;;13.47;6.97;;;12.30;99.90;;;;;;5036479;28;20247;-70
2022/03/18 17:40:43;;;;;;;11.23;6.33;;;12.30;99.90;;;;;;5042457;28;20203;-71
2022/03/18 17:43:09;;;;;;;14.20;6.73;;;12.40;99.90;;;;;;5042828;28;20220;-71
2022/03/18 17:45:35;;;;;;;13.37;6.67;;;12.40;99.90;;;;;;5044530;28;20183;-70
2022/03/18 17:48:00;;;;;;;9.53;6.33;;;12.40;99.90;;;;;;5042042;28;20207;-70
2022/03/18 17:50:26;;;;;;;11.63;6.20;;;12.30;99.90;;;;;;5046007;28;20336;-70
2022/03/18 17:52:52;;;;;;;10.73;6.47;;;12.30;99.90;;;;;;5043019;28;20192;-70
2022/03/18 17:55:17;;;;;;;13.07;5.77;;;12.30;99.90;;;;;;5042842;28;20580;-70
2022/03/18 17:57:43;;;;;;;9.57;5.57;;;12.20;99.90;;;;;;5042300;28;20207;-71
2022/03/18 18:00:10;;;;;;;9.63;5.13;;;12.10;99.90;;;;;;5044574;28;20596;-70
2022/03/18 18:02:36;;;;;;;10.43;4.60;;;12.10;99.90;;;;;;5045710;28;20184;-70
2022/03/18 18:05:02;;;;;;;8.30;4.57;;;12.10;99.90;;;;;;5041619;28;20176;-71
2022/03/18 18:07:27;;;;;;;10.20;4.30;;;12.00;99.90;;;;;;5044462;28;20537;-70
2022/03/18 18:09:53;;;;;;;10.53;3.70;;;11.90;99.90;;;;;;5040366;28;20295;-71
2022/03/18 18:12:20;;;;;;;8.43;3.77;;;11.80;99.90;;;;;;5043922;28;20187;-70
2022/03/18 18:14:46;;;;;;;12.73;4.03;;;11.80;99.90;;;;;;5040469;28;20187;-71
2022/03/18 18:17:12;;;;;;;15.60;3.90;;;11.80;99.90;;;;;;5046757;28;20198;-70
2022/03/18 18:22:23;;;;;;;6.03;3.00;;;11.70;99.90;;;;;;5045851;28;20278;-71
2022/03/18 18:24:51;;;;;;;11.30;2.90;;;11.60;99.90;;;;;;5045650;28;20187;-70
2022/03/18 18:27:20;;;;;;;6.93;2.90;;;11.60;99.90;;;;;;5028006;28;20198;-70
2022/03/18 18:29:46;;;;;;;11.43;3.13;;;11.60;99.90;;;;;;5046792;28;20204;-70
2022/03/18 18:32:12;;;;;;;8.10;2.83;;;11.50;99.90;;;;;;5044728;28;20187;-71
2022/03/18 18:34:38;;;;;;;6.03;2.97;;;11.40;99.90;;;;;;5046743;28;20191;-71
2022/03/18 18:37:04;;;;;;;9.50;3.00;;;11.40;99.90;;;;;;5044437;28;20210;-70
2022/03/18 18:39:31;;;;;;;9.03;2.83;;;11.30;99.90;;;;;;5043241;28;20282;-71
2022/03/18 18:41:58;;;;;;;11.93;3.37;;;11.30;99.90;;;;;;5045416;28;20207;-70
2022/03/18 18:44:25;;;;;;;10.17;3.13;;;11.20;99.90;;;;;;5044216;28;20206;-71
2022/03/18 18:46:51;;;;;;;11.40;3.53;;;11.10;99.90;;;;;;5045518;28;20176;-71
2022/03/18 18:49:17;;;;;;;7.57;3.07;;;11.10;99.90;;;;;;5043563;28;20211;-71
2022/03/18 18:51:50;;;;;;;8.60;3.10;;;11.10;99.90;;;;;;5040861;28;20203;-70
2022/03/18 18:54:17;;;;;;;10.27;3.53;;;11.00;99.90;;;;;;5044805;28;20210;-70
2022/03/18 18:56:44;;;;;;;10.40;3.17;;;11.00;99.90;;;;;;5044332;28;20195;-71
2022/03/18 18:59:10;;;;;;;12.67;3.53;;;10.90;99.90;;;;;;5042913;28;20207;-71
2022/03/18 19:01:37;;;;;;;11.70;3.03;;;10.80;99.90;;;;;;5045516;28;20199;-71
2022/03/18 19:04:03;;;;;;;16.17;3.50;;;10.80;99.90;;;;;;5043636;28;20180;-71
2022/03/18 19:06:28;;;;;;;15.77;3.53;;;10.70;99.90;;;;;;5040839;28;20195;-70
2022/03/18 19:08:55;;;;;;;10.30;3.37;;;10.60;99.90;;;;;;5042087;28;20208;-71
2022/03/18 19:11:22;;;;;;;12.17;3.50;;;10.60;99.90;;;;;;5037504;28;20195;-70
2022/03/18 19:13:47;;;;;;;13.77;4.37;;;10.60;99.90;;;;;;5044411;28;20185;-71
2022/03/18 19:16:14;;;;;;;13.03;3.03;;;10.50;99.90;;;;;;5046602;28;20251;-71
2022/03/18 19:18:40;;;;;;;15.03;3.53;;;10.40;99.90;;;;;;5041580;28;20198;-70
2022/03/18 19:21:07;;;;;;;15.17;3.63;;;10.40;99.90;;;;;;5041830;28;20291;-70
2022/03/18 19:23:33;;;;;;;14.87;3.93;;;10.40;99.90;;;;;;5043359;28;20179;-71
2022/03/18 19:25:58;;;;;;;16.57;3.07;;;10.40;99.90;;;;;;5042930;28;20667;-71
2022/03/18 19:28:25;;;;;;;18.10;4.10;;;10.40;99.90;;;;;;5042324;28;20297;-71
2022/03/18 19:30:51;;;;;;;13.37;3.70;;;10.30;99.90;;;;;;5040713;28;20192;-72
2022/03/18 19:33:17;;;;;;;8.93;3.73;;;10.20;99.90;;;;;;5039350;28;20292;-70
2022/03/18 19:35:44;;;;;;;14.13;3.93;;;10.10;99.90;;;;;;5043051;28;20212;-73
2022/03/18 19:38:11;;;;;;;14.37;3.87;;;10.10;99.90;;;;;;5043231;28;20190;-72
2022/03/18 19:40:37;;;;;;;15.43;3.77;;;10.10;99.90;;;;;;5042953;28;20202;-72
2022/03/18 19:43:04;;;;;;;14.93;3.70;;;10.00;99.90;;;;;;5044507;28;20176;-74
2022/03/18 19:45:29;;;;;;;13.50;3.97;;;10.00;99.90;;;;;;5044400;28;20275;-72
2022/03/18 19:47:55;;;;;;;12.13;4.00;;;9.90;99.90;;;;;;5043444;28;20267;-72
2022/03/18 19:50:21;;;;;;;11.47;3.93;;;9.80;99.90;;;;;;5041535;28;20294;-71
2022/03/18 19:52:47;;;;;;;12.87;3.57;;;9.80;99.90;;;;;;5043036;28;20191;-72
2022/03/18 19:55:14;;;;;;;12.20;3.40;;;9.80;99.90;;;;;;5044562;28;20198;-72
2022/03/18 20:03:08;;;;;;;16.37;3.97;;;9.60;99.90;;;;;;5046019;28;20197;-73
2022/03/18 20:05:34;;;;;;;12.50;4.13;;;9.60;99.90;;;;;;5045038;28;20176;-72
2022/03/18 20:08:04;;;;;;;11.60;3.50;;;9.50;99.90;;;;;;5040091;28;20184;-73
2022/03/18 20:10:34;;;;;;;11.20;3.83;;;9.50;99.90;;;;;;5044486;28;20203;-72
2022/03/18 20:13:00;;;;;;;17.33;4.37;;;9.40;99.90;;;;;;5047692;28;20179;-73
2022/03/18 20:15:27;;;;;;;12.27;3.93;;;9.30;99.90;;;;;;5045797;28;20211;-73
2022/03/18 20:17:53;;;;;;;20.63;3.67;;;9.30;99.90;;;;;;5045406;28;20192;-73
2022/03/18 20:20:19;;;;;;;10.93;3.00;;;9.20;99.90;;;;;;5044103;28;20204;-71
2022/03/18 20:22:46;;;;;;;13.03;3.87;;;9.20;99.90;;;;;;5040433;28;20214;-73
2022/03/18 20:25:15;;;;;;;13.50;3.93;;;9.20;99.90;;;;;;5040105;28;20171;-71
2022/03/18 20:27:45;;;;;;;14.60;4.30;;;9.20;99.90;;;;;;5044832;28;20196;-71
2022/03/18 20:30:12;;;;;;;12.80;3.70;;;9.20;99.90;;;;;;5039600;28;20196;-71
2022/03/18 20:32:39;;;;;;;15.67;3.73;;;9.10;99.90;;;;;;5043794;28;20242;-72
2022/03/18 20:35:05;;;;;;;16.30;3.87;;;9.10;99.90;;;;;;5044889;28;20215;-72
2022/03/18 20:37:35;;;;;;;11.07;3.60;;;9.00;99.90;;;;;;5045620;28;20179;-73
2022/03/18 20:40:04;;;;;;;10.77;4.07;;;9.00;99.90;;;;;;5049434;28;20235;-71
2022/03/18 20:42:30;;;;;;;14.67;4.43;;;9.00;99.90;;;;;;5047189;28;20200;-72
2022/03/18 20:44:56;;;;;;;12.63;3.70;;;8.90;99.90;;;;;;5047154;28;20187;-72
2022/03/18 20:47:23;;;;;;;12.33;3.60;;;8.90;99.90;;;;;;5048003;28;20268;-72
2022/03/18 20:49:49;;;;;;;11.93;3.47;;;8.80;99.90;;;;;;5047650;28;20199;-72
2022/03/18 20:52:14;;;;;;;17.40;4.13;;;8.80;99.90;;;;;;5048247;28;20195;-73
2022/03/18 20:54:43;;;;;;;12.53;3.37;;;8.70;99.90;;;;;;5044459;28;20278;-72
2022/03/18 20:57:08;;;;;;;12.47;4.20;;;8.70;99.90;;;;;;5045097;28;20178;-73
2022/03/18 20:59:34;;;;;;;16.43;4.10;;;8.60;99.90;;;;;;5043276;28;20214;-72
2022/03/18 21:02:00;;;;;;;11.93;3.70;;;8.60;99.90;;;;;;5039363;28;20198;-73
2022/03/18 21:04:26;;;;;;;14.63;3.80;;;8.60;99.90;;;;;;5039933;28;20612;-72
2022/03/18 21:06:51;;;;;;;17.23;4.17;;;8.60;99.90;;;;;;5040293;28;20190;-71
2022/03/18 21:09:17;;;;;;;14.33;3.80;;;8.60;99.90;;;;;;5044692;28;20203;-72
2022/03/18 21:11:43;;;;;;;15.13;3.87;;;8.60;99.90;;;;;;5044505;28;20206;-71
2022/03/18 21:14:13;;;;;;;15.33;4.03;;;8.60;99.90;;;;;;5044784;28;20232;-72
2022/03/18 21:16:39;;;;;;;15.30;3.67;;;8.50;99.90;;;;;;5042758;28;20215;-71
2022/03/18 21:19:05;;;;;;;7.83;3.10;;;8.50;99.90;;;;;;5041638;28;20215;-71
2022/03/18 21:21:34;;;;;;;8.47;3.40;;;8.50;99.90;;;;;;5041227;28;20203;-71
2022/03/18 21:24:01;;;;;;;14.93;3.43;;;8.40;99.90;;;;;;5042907;28;20675;-72
2022/03/18 21:31:59;;;;;;;12.30;3.33;;;8.30;99.90;;;;;;5072472;28;20166;-73
2022/03/18 21:34:25;;;;;;;12.83;3.37;;;8.20;99.90;;;;;;5057972;28;20722;-74
2022/03/18 21:36:51;;;;;;;12.43;3.70;;;8.20;99.90;;;;;;5060340;28;20230;-73
2022/03/18 21:39:17;;;;;;;12.50;3.07;;;8.20;99.90;;;;;;5071961;28;20235;-74
2022/03/18 21:41:43;;;;;;;11.13;3.90;;;8.10;99.90;;;;;;5067728;28;20215;-72
2022/03/18 21:44:09;;;;;;;13.50;3.83;;;8.10;99.90;;;;;;5042665;28;20267;-72
2022/03/18 21:46:36;;;;;;;16.13;3.90;;;8.10;99.90;;;;;;5065868;28;20617;-72
2022/03/18 21:49:08;;;;;;;12.77;3.63;;;8.10;99.90;;;;;;5049423;28;20226;-72
2022/03/18 21:51:35;;;;;;;10.53;3.67;;;8.10;99.90;;;;;;5032296;28;20196;-74
2022/03/18 21:54:03;;;;;;;16.37;4.10;;;8.10;99.90;;;;;;5030900;28;20176;-73
2022/03/18 21:56:30;;;;;;;15.20;3.60;;;8.10;99.90;;;;;;5049749;28;20182;-73
2022/03/18 21:58:57;;;;;;;12.47;4.07;;;8.10;99.90;;;;;;5063291;28;20222;-71
2022/03/18 22:01:24;;;;;;;16.53;4.00;;;8.00;99.90;;;;;;5071511;28;20207;-74
2022/03/18 22:03:50;;;;;;;12.87;3.77;;;7.90;99.90;;;;;;5050792;28;20241;-73
2022/03/18 22:06:16;;;;;;;13.37;3.63;;;7.90;99.90;;;;;;5046376;28;20577;-72
2022/03/18 22:08:42;;;;;;;15.23;3.70;;;7.80;99.90;;;;;;5051318;28;20274;-72
2022/03/18 22:11:08;;;;;;;14.00;3.93;;;7.80;99.90;;;;;;5045483;28;20192;-73
2022/03/18 22:13:34;;;;;;;12.50;3.97;;;7.80;99.90;;;;;;5051205;28;20195;-73
2022/03/18 22:15:59;;;;;;;14.50;3.60;;;7.80;99.90;;;;;;5051503;28;20179;-72
2022/03/18 22:18:25;;;;;;;11.63;3.50;;;7.80;99.90;;;;;;5052325;28;20658;-73
2022/03/18 22:20:51;;;;;;;19.03;3.57;;;7.80;99.90;;;;;;5052404;28;20195;-73
2022/03/18 22:23:17;;;;;;;11.63;3.60;;;7.70;99.90;;;;;;5051511;28;20175;-73
2022/03/18 22:25:42;;;;;;;10.03;3.37;;;7.70;99.90;;;;;;5051522;28;20604;-72
2022/03/18 22:28:08;;;;;;;10.70;3.40;;;7.60;99.90;;;;;;5059474;28;20173;-71
2022/03/18 22:30:34;;;;;;;9.60;3.17;;;7.60;99.90;;;;;;5050990;28;20258;-73
2022/03/18 22:33:01;;;;;;;6.83;3.00;;;7.70;99.90;;;;;;5053154;28;20594;-72
2022/03/18 22:35:27;;;;;;;13.23;3.50;;;7.70;99.90;;;;;;5064504;28;20211;-73
2022/03/18 22:37:53;;;;;;;12.63;3.27;;;7.60;99.90;;;;;;5062039;28;20191;-73
2022/03/18 22:40:19;;;;;;;15.70;3.17;;;7.60;99.90;;;;;;5070931;28;20229;-73
2022/03/18 22:42:46;;;;;;;9.53;3.30;;;7.60;99.90;;;;;;5070772;28;20241;-72
2022/03/18 22:45:12;;;;;;;13.63;3.23;;;7.60;99.90;;;;;;5070559;28;20289;-72
2022/03/18 22:47:41;;;;;;;16.13;3.67;;;7.60;99.90;;;;;;5070730;28;20183;-73
2022/03/18 22:50:08;;;;;;;11.43;3.97;;;7.60;99.90;;;;;;5070466;28;20199;-72
2022/03/18 22:52:38;;;;;;;11.83;3.50;;;7.60;99.90;;;;;;5070676;28;20179;-72
2022/03/18 22:55:05;;;;;;;10.40;3.13;;;7.60;99.90;;;;;;5069355;28;20179;-73
2022/03/18 22:57:30;;;;;;;9.50;3.80;;;7.50;99.90;;;;;;5059532;28;20269;-73
2022/03/18 22:59:56;;;;;;;11.37;3.70;;;7.50;99.90;;;;;;5034624;28;20303;-72
2022/03/18 23:02:22;;;;;;;12.30;4.53;;;7.50;99.90;;;;;;5056257;28;20694;-73
2022/03/18 23:04:48;;;;;;;19.63;3.97;;;7.50;99.90;;;;;;5033750;28;20181;-72
2022/03/18 23:07:14;;;;;;;12.30;3.77;;;7.50;99.90;;;;;;5036870;28;20175;-71
2022/03/18 23:09:40;;;;;;;13.30;4.30;;;7.50;99.90;;;;;;5055025;28;20309;-72
2022/03/18 23:12:09;;;;;;;15.53;4.63;;;7.40;99.90;;;;;;5058846;28;20187;-73
2022/03/18 23:14:35;;;;;;;15.17;4.23;;;7.40;99.90;;;;;;5040261;28;20224;-71
2022/03/18 23:17:01;;;;;;;7.83;3.40;;;7.40;99.90;;;;;;5034626;28;20208;-73
2022/03/18 23:19:27;;;;;;;13.77;4.37;;;7.40;99.90;;;;;;5039559;28;20231;-72
2022/03/18 23:21:52;;;;;;;11.33;3.70;;;7.40;99.90;;;;;;5049996;28;20207;-73
2022/03/18 23:24:18;;;;;;;13.50;4.13;;;7.40;99.90;;;;;;5033097;28;20176;-73
2022/03/18 23:26:43;;;;;;;15.20;3.83;;;7.40;99.90;;;;;;5047912;28;20208;-72
2022/03/18 23:29:09;;;;;;;16.50;3.60;;;7.30;99.90;;;;;;5051959;28;20565;-73
2022/03/18 23:31:35;;;;;;;12.27;4.13;;;7.30;99.90;;;;;;5050104;28;20184;-72
2022/03/18 23:34:01;;;;;;;15.10;3.23;;;7.20;99.90;;;;;;5044444;28;20195;-74
2022/03/18 23:36:26;;;;;;;12.63;4.00;;;7.20;99.90;;;;;;5055975;28;20544;-71
2022/03/18 23:38:52;;;;;;;9.67;3.73;;;7.20;99.90;;;;;;5068369;28;20252;-73
2022/03/18 23:41:18;;;;;;;10.87;3.90;;;7.20;99.90;;;;;;5069608;28;20199;-72
2022/03/18 23:43:45;;;;;;;10.03;3.77;;;7.30;99.90;;;;;;5046876;28;20179;-71
2022/03/18 23:46:12;;;;;;;13.17;4.43;;;7.20;99.90;;;;;;5033666;28;20267;-73
2022/03/18 23:48:38;;;;;;;16.27;4.73;;;7.20;99.90;;;;;;5045097;28;20219;-72
2022/03/18 23:51:05;;;;;;;12.57;4.60;;;7.20;99.90;;;;;;5029781;28;20283;-72
2022/03/18 23:53:30;;;;;;;15.03;4.20;;;7.20;99.90;;;;;;5029796;28;20184;-73
2022/03/18 23:55:56;;;;;;;11.93;4.43;;;7.10;99.90;;;;;;5039170;28;20286;-72
2022/03/18 23:58:22;;;;;;;10.33;4.10;;;7.10;99.90;;;;;;5061362;28;20209;-73
